Time;durP1;ratioP1;P1;durP2;ratioP2;P2;SDS_P1;SDS_P2;PMS_P1;PMS_P2;Temp;Humidity;BMP_temperature;BMP_pressure;BME280_temperature;BME280_humidity;BME280_pressure;Samples;Min_cycle;Max_cycle;Signal;HPM_P1;HPM_P2
2022/02/22 00:01:26;;;;;;;1.15;0.50;;;;;;;3.37;100.00;97473.69;10350982;28;20050;-61
2022/02/22 00:06:31;;;;;;;1.90;0.70;;;;;;;3.39;100.00;97482.41;10341536;28;20146;-62
2022/02/22 00:11:34;;;;;;;2.15;0.68;;;;;;;3.43;100.00;97506.91;10344643;28;20064;-61
2022/02/22 00:16:37;;;;;;;2.08;0.77;;;;;;;3.38;100.00;97502.00;10343735;28;20038;-62
2022/02/22 00:21:41;;;;;;;3.03;0.80;;;;;;;3.42;100.00;97501.75;10339966;28;20046;-64
2022/02/22 00:26:44;;;;;;;2.80;0.88;;;;;;;3.43;100.00;97506.09;10345957;28;20152;-59
2022/02/22 00:31:47;;;;;;;2.92;0.90;;;;;;;3.49;100.00;97510.84;10343825;28;20080;-60
2022/02/22 00:36:52;;;;;;;6.57;1.10;;;;;;;3.50;100.00;97509.88;10345706;28;20117;-62
2022/02/22 00:41:55;;;;;;;6.07;1.20;;;;;;;3.53;100.00;97514.94;10353618;28;20046;-60
2022/02/22 00:46:58;;;;;;;4.68;1.10;;;;;;;3.57;100.00;97529.66;10346166;28;20518;-60
2022/02/22 00:52:03;;;;;;;4.53;1.15;;;;;;;3.60;100.00;97536.53;10351067;28;20054;-61
2022/02/22 00:57:06;;;;;;;4.53;1.08;;;;;;;3.55;100.00;97547.59;10352538;28;20149;-59
2022/02/22 01:02:09;;;;;;;5.47;1.10;;;;;;;3.53;100.00;97560.19;10346456;28;20056;-59
2022/02/22 01:07:16;;;;;;;5.32;1.40;;;;;;;3.50;100.00;97563.97;10323461;28;20581;-61
2022/02/22 01:12:19;;;;;;;7.13;1.38;;;;;;;3.51;100.00;97575.47;10322357;28;20050;-60
2022/02/22 01:17:23;;;;;;;4.85;1.23;;;;;;;3.52;100.00;97579.81;10327074;28;20120;-63
2022/02/22 01:22:27;;;;;;;7.18;1.60;;;;;;;3.59;100.00;97610.22;10331105;28;20516;-59
2022/02/22 01:27:30;;;;;;;7.78;1.35;;;;;;;3.65;100.00;97585.72;10331391;28;20050;-61
2022/02/22 01:32:33;;;;;;;6.60;1.35;;;;;;;3.69;100.00;97587.16;10332187;28;20046;-61
2022/02/22 01:37:41;;;;;;;5.05;1.25;;;;;;;3.72;100.00;97593.16;10339395;28;20049;-59
2022/02/22 01:42:44;;;;;;;4.75;1.20;;;;;;;3.88;100.00;97580.13;10334971;28;20554;-60
2022/02/22 01:47:47;;;;;;;7.40;1.27;;;;;;;3.91;100.00;97609.19;10337861;28;20431;-59
2022/02/22 01:52:51;;;;;;;5.57;1.30;;;;;;;3.94;100.00;97608.88;10338516;28;20116;-60
2022/02/22 01:57:54;;;;;;;4.75;1.30;;;;;;;3.99;100.00;97611.97;10337635;28;20118;-59
2022/02/22 02:02:58;;;;;;;4.03;1.10;;;;;;;4.02;100.00;97605.50;10338364;28;20105;-59
2022/02/22 02:08:02;;;;;;;5.43;1.15;;;;;;;3.97;100.00;97631.75;10340016;28;20124;-62
2022/02/22 02:13:05;;;;;;;6.38;1.40;;;;;;;3.87;100.00;97650.41;10339670;28;20459;-65
2022/02/22 02:18:09;;;;;;;6.63;1.52;;;;;;;3.85;100.00;97663.00;10349158;28;20494;-62
2022/02/22 02:23:13;;;;;;;6.07;1.48;;;;;;;3.85;100.00;97671.00;10345024;28;20503;-61
2022/02/22 02:28:18;;;;;;;8.25;1.92;;;;;;;3.91;100.00;97675.78;10343893;28;20491;-60
2022/02/22 02:33:21;;;;;;;6.47;1.40;;;;;;;3.95;100.00;97677.19;10348465;28;20038;-58
2022/02/22 02:38:25;;;;;;;8.00;1.90;;;;;;;3.93;100.00;97697.81;10337852;28;20971;-61
2022/02/22 02:43:28;;;;;;;10.35;1.90;;;;;;;3.98;100.00;97716.06;10347395;28;20130;-59
2022/02/22 02:48:31;;;;;;;7.55;1.75;;;;;;;4.00;100.00;97703.41;10333295;28;20399;-58
2022/02/22 02:53:36;;;;;;;5.55;1.58;;;;;;;4.02;100.00;97701.47;10350265;28;20057;-62
2022/02/22 02:58:39;;;;;;;5.20;1.40;;;;;;;4.00;100.00;97698.94;10329226;28;20050;-57
2022/02/22 03:03:42;;;;;;;5.20;1.40;;;;;;;3.91;100.00;97714.91;10328720;28;20125;-64
2022/02/22 03:08:47;;;;;;;5.90;1.42;;;;;;;3.89;100.00;97735.50;10147583;28;5001588;-61
2022/02/22 03:13:50;;;;;;;7.82;1.80;;;;;;;3.82;100.00;97737.91;10330505;28;20060;-59
2022/02/22 03:18:54;;;;;;;7.88;1.50;;;;;;;3.78;100.00;97752.47;10328686;28;20112;-61
2022/02/22 03:23:59;;;;;;;7.05;1.55;;;;;;;3.73;100.00;97765.34;10328773;28;20046;-59
2022/02/22 03:29:03;;;;;;;6.30;1.60;;;;;;;3.68;100.00;97787.91;10348622;28;20500;-59
2022/02/22 03:34:06;;;;;;;9.80;2.20;;;;;;;3.65;100.00;97796.16;10338732;28;20542;-62
2022/02/22 03:39:13;;;;;;;10.10;1.90;;;;;;;3.64;100.00;97817.63;10345833;28;20053;-61
2022/02/22 03:44:16;;;;;;;10.45;2.00;;;;;;;3.55;100.00;97819.25;10344151;28;20137;-64
2022/02/22 03:49:20;;;;;;;10.50;2.17;;;;;;;3.47;100.00;97835.88;10338976;28;20529;-63
2022/02/22 03:54:24;;;;;;;11.57;2.17;;;;;;;3.47;100.00;97840.38;10343733;28;20054;-61
2022/02/22 03:59:27;;;;;;;12.45;2.58;;;;;;;3.42;100.00;97877.19;10349083;28;20491;-61
2022/02/22 04:04:30;;;;;;;11.07;2.70;;;;;;;3.37;100.00;97883.72;10343454;28;20479;-62
2022/02/22 04:09:35;;;;;;;13.73;2.95;;;;;;;3.24;100.00;97888.38;10353543;28;20078;-56
2022/02/22 04:14:39;;;;;;;16.25;2.97;;;;;;;3.12;100.00;97892.09;10352502;28;20681;-60
2022/02/22 04:19:42;;;;;;;11.32;2.60;;;;;;;3.07;100.00;97901.28;10354225;28;20040;-64
2022/02/22 04:24:46;;;;;;;12.15;2.78;;;;;;;3.06;100.00;97906.72;10339300;28;20397;-63
2022/02/22 04:29:49;;;;;;;9.57;2.53;;;;;;;2.87;100.00;97923.38;10350277;28;20044;-62
2022/02/22 04:34:52;;;;;;;14.70;2.90;;;;;;;2.85;100.00;97930.63;10358472;28;20481;-63
2022/02/22 04:39:58;;;;;;;14.15;2.92;;;;;;;2.73;100.00;97933.31;10362950;28;20145;-62
2022/02/22 04:45:01;;;;;;;12.13;2.67;;;;;;;2.75;100.00;97952.66;10355052;28;20520;-61
2022/02/22 04:50:05;;;;;;;15.15;2.80;;;;;;;2.61;100.00;97948.44;10329890;28;20077;-63
2022/02/22 04:55:11;;;;;;;15.60;3.08;;;;;;;2.56;100.00;97953.28;10332462;28;20061;-61
2022/02/22 05:00:17;;;;;;;18.17;3.10;;;;;;;2.54;100.00;97957.03;10328046;28;20050;-62
2022/02/22 05:05:21;;;;;;;12.75;2.55;;;;;;;2.57;100.00;97975.41;10329858;28;20042;-63
2022/02/22 05:10:26;;;;;;;14.43;2.55;;;;;;;2.46;100.00;97979.75;10332748;28;20062;-62
2022/02/22 05:15:32;;;;;;;12.23;2.65;;;;;;;2.40;100.00;97990.88;10333458;28;20418;-62
2022/02/22 05:20:36;;;;;;;11.15;2.72;;;;;;;2.42;100.00;98012.84;10335001;28;20047;-63
2022/02/22 05:25:41;;;;;;;14.65;2.70;;;;;;;2.43;100.00;98027.84;10382081;22;20121;-82
2022/02/22 05:30:47;;;;;;;10.68;2.63;;;;;;;2.50;100.00;98030.88;10414013;28;20178;-81
2022/02/22 05:35:51;;;;;;;8.88;1.90;;;;;;;2.56;100.00;98035.72;10400663;28;20113;-82
2022/02/22 05:40:56;;;;;;;10.15;2.20;;;;;;;2.59;100.00;98042.63;10405984;28;20477;-81
2022/02/22 05:45:59;;;;;;;12.55;2.50;;;;;;;2.56;100.00;98049.03;10393164;28;20116;-82
2022/02/22 05:51:02;;;;;;;11.50;2.30;;;;;;;2.55;100.00;98057.97;10400954;28;20049;-81
2022/02/22 05:56:06;;;;;;;12.60;2.72;;;;;;;2.55;100.00;98071.25;10395642;28;20049;-82
2022/02/22 06:01:09;;;;;;;11.05;2.58;;;;;;;2.57;100.00;98087.09;10389943;28;20080;-81
2022/02/22 06:06:15;;;;;;;16.15;2.88;;;;;;;2.56;100.00;98090.72;10392858;28;20048;-81
2022/02/22 06:11:19;;;;;;;11.07;2.83;;;;;;;2.56;100.00;98112.00;10396486;28;20422;-81
2022/02/22 06:16:25;;;;;;;11.75;2.95;;;;;;;2.57;100.00;98113.69;10395334;28;20050;-82
2022/02/22 06:21:28;;;;;;;13.45;2.85;;;;;;;2.59;100.00;98149.00;10409039;28;20532;-81
2022/02/22 06:26:33;;;;;;;12.18;2.65;;;;;;;2.57;100.00;98150.91;10377032;28;20070;-81
2022/02/22 06:31:36;;;;;;;10.18;2.50;;;;;;;2.58;100.00;98157.94;10376580;28;20398;-80
2022/02/22 06:36:39;;;;;;;15.77;2.83;;;;;;;2.55;100.00;98168.78;10378350;28;20144;-81
2022/02/22 06:41:43;;;;;;;14.63;2.95;;;;;;;2.50;100.00;98170.97;10399547;28;20470;-81
2022/02/22 06:46:46;;;;;;;13.32;2.60;;;;;;;2.06;100.00;98160.88;10394580;28;20044;-81
2022/02/22 06:51:50;;;;;;;15.30;3.28;;;;;;;1.92;100.00;98179.69;10392177;28;20144;-81
2022/02/22 06:56:54;;;;;;;14.13;3.13;;;;;;;1.85;100.00;98181.94;10388372;28;20140;-83
2022/02/22 07:02:14;;;;;;;12.15;2.55;;;;;;;1.86;100.00;98199.56;10401399;28;20084;-81
2022/02/22 07:07:22;;;;;;;13.55;2.88;;;;;;;1.83;100.00;98219.22;10395045;28;20548;-82
2022/02/22 07:12:25;;;;;;;10.85;2.80;;;;;;;1.91;100.00;98221.31;10399993;28;20077;-81
2022/02/22 07:17:30;;;;;;;14.35;2.63;;;;;;;1.96;100.00;98218.31;10391196;28;20064;-82
2022/02/22 07:22:33;;;;;;;13.45;2.65;;;;;;;2.06;100.00;98226.47;10402191;28;20494;-81
2022/02/22 07:27:36;;;;;;;12.75;2.95;;;;;;;2.15;100.00;98220.47;10393764;28;20057;-81
2022/02/22 07:32:41;;;;;;;14.70;3.03;;;;;;;2.42;100.00;98230.03;10394459;28;20053;-82
2022/02/22 07:37:45;;;;;;;14.85;3.00;;;;;;;2.73;100.00;98220.59;10403303;28;20055;-81
2022/02/22 07:42:48;;;;;;;11.52;2.70;;;;;;;2.76;100.00;98246.94;10383819;28;20120;-81
2022/02/22 07:47:52;;;;;;;11.50;2.92;;;;;;;2.84;100.00;98243.72;10394526;28;20073;-81
2022/02/22 07:52:55;;;;;;;12.20;2.70;;;;;;;2.90;100.00;98264.56;10388487;28;20081;-82
2022/02/22 07:57:58;;;;;;;13.85;2.83;;;;;;;2.95;100.00;98268.66;10422260;28;20058;-81
2022/02/22 08:03:03;;;;;;;17.23;3.10;;;;;;;2.99;100.00;98271.00;10412034;28;20481;-81
2022/02/22 08:08:08;;;;;;;13.55;2.97;;;;;;;3.04;100.00;98252.84;10397771;28;20116;-81
2022/02/22 08:13:12;;;;;;;10.75;2.42;;;;;;;3.11;100.00;98266.53;10391553;28;20046;-82
2022/02/22 08:18:17;;;;;;;16.50;2.85;;;;;;;3.36;100.00;98285.94;10389496;28;20073;-81
2022/02/22 08:23:20;;;;;;;12.70;2.83;;;;;;;3.42;100.00;98274.78;10385836;28;20049;-80
2022/02/22 08:28:23;;;;;;;16.25;2.60;;;;;;;3.50;100.00;98277.72;10397454;28;20451;-82
2022/02/22 08:33:28;;;;;;;14.27;2.70;;;;;;;3.50;100.00;98287.53;10391386;28;20050;-80
2022/02/22 08:38:31;;;;;;;12.48;2.83;;;;;;;3.54;100.00;98283.66;10398719;28;20092;-81
2022/02/22 08:43:39;;;;;;;16.55;3.22;;;;;;;3.81;100.00;98272.63;10403146;28;20084;-80
2022/02/22 08:48:44;;;;;;;10.95;2.65;;;;;;;3.97;100.00;98316.72;10404580;28;20053;-81
2022/02/22 08:53:49;;;;;;;16.58;3.08;;;;;;;3.96;100.00;98270.56;10411212;28;20057;-79
2022/02/22 08:58:52;;;;;;;14.52;3.13;;;;;;;4.12;100.00;98298.66;10399227;28;20506;-79
2022/02/22 09:03:57;;;;;;;13.48;3.03;;;;;;;4.22;100.00;98312.94;10385526;28;20057;-80
2022/02/22 09:09:00;;;;;;;11.85;2.50;;;;;;;4.15;100.00;98309.91;10384655;28;20140;-79
2022/02/22 09:14:03;;;;;;;10.38;2.30;;;;;;;4.07;100.00;98311.50;10392524;28;20129;-80
2022/02/22 09:19:07;;;;;;;12.52;2.35;;;;;;;4.12;100.00;98309.31;10395537;28;20100;-80
2022/02/22 09:24:10;;;;;;;12.20;2.83;;;;;;;3.99;100.00;98330.78;10393700;28;20068;-80
2022/02/22 09:29:13;;;;;;;13.38;2.72;;;;;;;3.99;100.00;98360.13;10387135;28;20048;-82
2022/02/22 09:34:18;;;;;;;12.00;2.58;;;;;;;4.10;100.00;98332.59;10384872;28;20054;-81
2022/02/22 09:39:21;;;;;;;12.50;2.47;;;;;;;4.24;100.00;98345.66;10387120;28;20041;-81
2022/02/22 09:44:24;;;;;;;8.02;2.25;;;;;;;4.26;100.00;98354.41;10386729;28;20525;-80
2022/02/22 09:49:29;;;;;;;10.93;2.40;;;;;;;4.34;100.00;98351.13;10378487;28;20108;-82
2022/02/22 09:54:33;;;;;;;11.05;2.83;;;;;;;4.32;100.00;98369.91;10383057;28;20121;-83
2022/02/22 09:59:36;;;;;;;11.05;2.58;;;;;;;4.43;100.00;98384.19;10378283;28;20052;-82
2022/02/22 10:04:45;;;;;;;12.98;2.90;;;;;;;4.38;100.00;98383.72;10378351;28;20139;-84
2022/02/22 10:09:54;;;;;;;10.73;2.28;;;;;;;4.15;100.00;98389.06;10381791;28;20042;-83
2022/02/22 10:15:00;;;;;;;12.00;2.60;;;;;;;3.72;100.00;98387.94;10390234;28;20057;-83
2022/02/22 10:20:08;;;;;;;14.23;3.20;;;;;;;3.78;100.00;98386.63;10391021;28;20057;-83
2022/02/22 10:25:11;;;;;;;11.15;3.00;;;;;;;3.88;100.00;98387.59;10395005;28;20053;-83
2022/02/22 10:30:31;;;;;;;12.07;2.30;;;;;;;4.14;100.00;98384.72;10380910;28;20041;-84
2022/02/22 10:35:36;;;;;;;12.57;2.50;;;;;;;4.30;100.00;98382.50;10387680;28;20047;-83
2022/02/22 10:40:41;;;;;;;11.73;2.60;;;;;;;4.43;100.00;98385.06;10388871;28;20073;-81
2022/02/22 10:45:48;;;;;;;8.40;2.35;;;;;;;4.56;100.00;98374.22;10381524;28;20053;-82
2022/02/22 10:50:54;;;;;;;8.52;1.98;;;;;;;4.77;100.00;98398.31;10388798;28;20049;-81
2022/02/22 10:55:58;;;;;;;13.75;2.58;;;;;;;4.81;100.00;98406.09;10385915;28;20129;-83
2022/02/22 11:01:02;;;;;;;9.65;2.00;;;;;;;4.70;100.00;98398.94;10384307;28;20053;-82
2022/02/22 11:06:09;;;;;;;8.65;2.33;;;;;;;4.72;100.00;98402.34;10386948;28;20120;-84
2022/02/22 11:11:17;;;;;;;8.20;2.10;;;;;;;4.73;100.00;98404.03;10382284;28;20042;-83
2022/02/22 11:16:20;;;;;;;9.38;2.42;;;;;;;5.06;100.00;98404.91;10383718;28;20046;-82
2022/02/22 11:21:38;;;;;;;7.97;2.00;;;;;;;4.96;100.00;98415.50;10391001;28;20140;-82
2022/02/22 11:26:49;;;;;;;12.60;2.38;;;;;;;4.78;100.00;98408.03;10387350;28;20126;-82
2022/02/22 11:32:01;;;;;;;10.48;2.20;;;;;;;4.92;100.00;98414.91;10402440;28;20026;-82
2022/02/22 11:37:06;;;;;;;;;;;;;;;4.80;100.00;98420.41;10405171;28;20049;-81
2022/02/22 11:42:17;;;;;;;9.82;2.40;;;;;;;5.03;100.00;98405.16;10382616;28;20271;-81
2022/02/22 11:47:20;;;;;;;7.20;1.90;;;;;;;5.47;100.00;98402.44;10388754;28;20052;-83
2022/02/22 11:52:36;;;;;;;7.82;2.05;;;;;;;5.80;100.00;98392.53;10391961;28;20492;-84
2022/02/22 11:57:57;;;;;;;9.45;2.00;;;;;;;5.86;100.00;98398.19;10396492;28;20076;-82
2022/02/22 12:03:12;;;;;;;8.75;2.13;;;;;;;5.88;100.00;98400.72;10394877;28;20061;-82
2022/02/22 12:08:19;;;;;;;7.60;2.08;;;;;;;5.84;100.00;98385.94;10404449;28;20045;-82
2022/02/22 12:13:24;;;;;;;8.68;2.10;;;;;;;6.14;100.00;98395.84;10427481;28;20056;-82
2022/02/22 12:18:28;;;;;;;10.15;2.10;;;;;;;6.06;100.00;98387.63;10414319;28;20153;-82
2022/02/22 12:23:32;;;;;;;7.25;1.90;;;;;;;5.82;100.00;98403.94;10387006;28;20396;-80
2022/02/22 12:28:45;;;;;;;10.52;2.22;;;;;;;5.81;100.00;98418.28;10395514;28;20050;-81
2022/02/22 12:33:48;;;;;;;11.80;2.35;;;;;;;5.89;100.00;98409.59;10395661;28;20060;-83
2022/02/22 12:38:57;;;;;;;10.30;2.17;;;;;;;5.98;100.00;98407.00;10400314;28;20080;-81
2022/02/22 12:43:59;;;;;;;7.65;1.92;;;;;;;5.87;100.00;98415.09;10393067;28;20045;-83
2022/02/22 12:49:04;;;;;;;9.68;2.17;;;;;;;5.88;100.00;98418.59;10390795;28;20056;-82
2022/02/22 12:54:11;;;;;;;8.77;1.95;;;;;;;5.92;100.00;98407.50;10386407;28;20109;-80
2022/02/22 12:59:16;;;;;;;5.85;1.75;;;;;;;5.95;100.00;98395.69;10390100;28;20045;-80
2022/02/22 13:04:22;;;;;;;8.73;1.98;;;;;;;5.95;100.00;98391.22;10392214;28;20038;-80
2022/02/22 13:09:28;;;;;;;10.20;2.10;;;;;;;5.97;100.00;98383.03;10394392;28;20049;-80
2022/02/22 13:14:39;;;;;;;7.80;1.95;;;;;;;6.06;100.00;98373.41;10400975;28;20053;-82
2022/02/22 13:19:43;;;;;;;7.10;1.85;;;;;;;6.11;100.00;98363.19;10388898;28;20052;-80
2022/02/22 13:24:57;;;;;;;8.52;2.20;;;;;;;6.12;100.00;98370.19;10392889;28;20084;-82
2022/02/22 13:30:04;;;;;;;8.02;1.92;;;;;;;6.29;100.00;98371.41;10387327;28;20573;-81
2022/02/22 13:35:16;;;;;;;6.28;1.90;;;;;;;6.37;100.00;98362.69;10391557;28;20050;-80
2022/02/22 13:40:27;;;;;;;7.55;2.05;;;;;;;6.35;100.00;98352.13;10388904;28;20072;-84
2022/02/22 13:45:32;;;;;;;8.43;2.10;;;;;;;6.36;100.00;98350.28;10392403;28;20046;-83
2022/02/22 13:50:36;;;;;;;9.55;2.00;;;;;;;6.57;100.00;98352.88;10367609;22;20086;-66
2022/02/22 13:55:50;;;;;;;7.60;1.80;;;;;;;6.56;100.00;98340.47;10333298;28;20053;-68
2022/02/22 14:00:57;;;;;;;7.97;1.90;;;;;;;6.48;100.00;98347.38;10343715;28;20074;-67
2022/02/22 14:06:02;;;;;;;6.68;1.80;;;;;;;6.54;100.00;98358.50;10299315;28;20519;-62
2022/02/22 14:11:07;;;;;;;6.63;1.70;;;;;;;6.49;100.00;98345.53;10288046;28;20491;-64
2022/02/22 14:16:10;;;;;;;5.15;1.60;;;;;;;6.47;100.00;98359.06;10287583;28;20044;-65
2022/02/22 14:21:17;;;;;;;8.50;1.90;;;;;;;6.45;100.00;98350.31;10296894;28;20054;-67
2022/02/22 14:26:22;;;;;;;5.68;1.67;;;;;;;6.41;100.00;98343.53;10286848;28;20046;-65
2022/02/22 14:31:25;;;;;;;5.97;1.60;;;;;;;6.42;100.00;98339.88;10286760;28;20053;-66
2022/02/22 14:36:30;;;;;;;5.78;1.60;;;;;;;6.42;100.00;98321.16;10307965;28;20140;-63
2022/02/22 14:41:35;;;;;;;7.57;1.70;;;;;;;6.39;100.00;98318.78;10292250;28;20067;-65
2022/02/22 14:46:38;;;;;;;4.43;1.38;;;;;;;6.37;100.00;98291.28;10293855;28;20058;-63
2022/02/22 14:51:41;;;;;;;6.47;1.73;;;;;;;6.32;100.00;98275.66;10295811;28;20050;-65
2022/02/22 14:56:46;;;;;;;6.32;1.70;;;;;;;6.30;100.00;98272.28;10295520;28;20043;-64
2022/02/22 15:01:50;;;;;;;5.95;1.35;;;;;;;6.30;100.00;98256.22;10291125;28;20466;-66
2022/02/22 15:06:53;;;;;;;5.88;1.50;;;;;;;6.30;100.00;98255.34;10301612;28;20456;-67
2022/02/22 15:11:58;;;;;;;5.05;1.30;;;;;;;6.30;100.00;98255.34;10295994;28;20066;-64
2022/02/22 15:17:02;;;;;;;5.35;1.50;;;;;;;6.31;100.00;98257.06;10298105;28;20381;-67
2022/02/22 15:22:05;;;;;;;7.68;1.55;;;;;;;6.35;100.00;98236.25;10304257;28;20050;-67
2022/02/22 15:27:09;;;;;;;4.30;1.48;;;;;;;6.39;100.00;98253.69;10315130;28;20670;-67
2022/02/22 15:32:13;;;;;;;7.63;1.67;;;;;;;6.44;100.00;98233.56;10310685;28;20558;-66
2022/02/22 15:37:16;;;;;;;6.00;1.60;;;;;;;6.42;100.00;98232.84;10308775;28;20057;-64
2022/02/22 15:42:20;;;;;;;7.00;1.60;;;;;;;6.37;100.00;98235.09;10308826;28;20073;-67
2022/02/22 15:47:23;;;;;;;6.10;1.50;;;;;;;6.30;100.00;98216.09;10311378;28;20495;-67
2022/02/22 15:52:26;;;;;;;9.23;1.80;;;;;;;6.28;100.00;98202.00;10312310;28;20054;-63
2022/02/22 15:57:31;;;;;;;6.07;1.52;;;;;;;6.19;100.00;98183.25;10304627;28;20136;-62
2022/02/22 16:02:34;;;;;;;6.32;1.70;;;;;;;6.16;100.00;98169.19;10297714;28;20410;-64
2022/02/22 16:07:37;;;;;;;6.35;1.80;;;;;;;6.16;100.00;98160.31;10293975;28;20046;-67
2022/02/22 16:12:42;;;;;;;5.90;1.85;;;;;;;6.07;100.00;98202.09;10299075;28;20117;-68
2022/02/22 16:17:45;;;;;;;6.75;1.75;;;;;;;6.04;100.00;98196.19;10294249;28;20084;-68
2022/02/22 16:22:49;;;;;;;5.88;1.60;;;;;;;6.01;100.00;98190.13;10293258;28;20130;-68
2022/02/22 16:27:54;;;;;;;7.22;1.85;;;;;;;6.03;100.00;98170.44;10296021;28;20047;-66
2022/02/22 16:33:17;;;;;;;6.05;1.77;;;;;;;6.01;100.00;98174.09;10303460;28;20045;-59
2022/02/22 16:38:20;;;;;;;5.15;1.58;;;;;;;6.02;100.00;98177.63;10294791;28;20045;-65
2022/02/22 16:43:29;;;;;;;5.95;1.70;;;;;;;6.00;100.00;98174.22;10304466;28;20041;-61
2022/02/22 16:48:32;;;;;;;5.10;1.60;;;;;;;5.96;100.00;98175.44;10299731;28;20152;-64
2022/02/22 16:53:35;;;;;;;6.78;1.70;;;;;;;5.97;100.00;98164.63;10298365;28;20113;-63
2022/02/22 16:58:40;;;;;;;6.72;2.00;;;;;;;5.98;100.00;98154.78;10302391;28;20510;-63
2022/02/22 17:03:43;;;;;;;8.35;2.20;;;;;;;5.94;100.00;98153.38;10307113;28;20410;-65
2022/02/22 17:08:46;;;;;;;5.40;1.70;;;;;;;5.94;100.00;98148.03;10306308;28;20574;-61
2022/02/22 17:13:50;;;;;;;5.65;1.65;;;;;;;5.88;100.00;98170.78;10305804;28;20481;-66
2022/02/22 17:18:53;;;;;;;7.32;1.70;;;;;;;5.70;100.00;98162.63;10303262;28;20159;-68
2022/02/22 17:23:56;;;;;;;3.92;1.30;;;;;;;5.55;100.00;98157.63;10314198;28;20117;-68
2022/02/22 17:29:01;;;;;;;6.10;1.70;;;;;;;5.46;100.00;98155.78;10307591;28;20042;-68
2022/02/22 17:34:06;;;;;;;5.22;1.60;;;;;;;5.51;100.00;98152.72;10311092;28;20051;-63
2022/02/22 17:39:09;;;;;;;4.95;1.70;;;;;;;5.51;100.00;98142.84;10305330;28;20050;-65
2022/02/22 17:44:14;;;;;;;6.13;1.60;;;;;;;5.53;100.00;98111.50;10307866;28;20117;-67
2022/02/22 17:49:17;;;;;;;5.82;1.70;;;;;;;5.61;100.00;98096.59;10310414;28;20398;-68
2022/02/22 17:54:21;;;;;;;4.95;1.55;;;;;;;5.67;100.00;98101.41;10305095;28;20041;-66
2022/02/22 17:59:26;;;;;;;7.75;1.75;;;;;;;5.70;100.00;98104.63;10301291;28;20095;-64
2022/02/22 18:04:30;;;;;;;5.53;1.58;;;;;;;5.78;100.00;98089.72;10291655;28;20500;-65
2022/02/22 18:09:34;;;;;;;4.70;1.30;;;;;;;5.80;100.00;98083.28;10289060;28;20046;-64
2022/02/22 18:14:39;;;;;;;4.32;1.25;;;;;;;5.80;100.00;98071.72;10295443;28;20049;-64
2022/02/22 18:19:43;;;;;;;4.43;1.35;;;;;;;5.81;100.00;98073.41;10290557;28;20060;-65
2022/02/22 18:24:47;;;;;;;3.90;1.10;;;;;;;5.85;100.00;98054.28;10297746;28;20042;-63
2022/02/22 18:29:51;;;;;;;3.35;1.15;;;;;;;5.86;100.00;98072.00;10300003;28;20054;-64
2022/02/22 18:34:57;;;;;;;2.45;1.08;;;;;;;5.90;100.00;98077.91;10290061;28;20121;-64
2022/02/22 18:40:00;;;;;;;3.35;0.93;;;;;;;5.93;100.00;98060.78;10293931;28;20047;-63
2022/02/22 18:45:06;;;;;;;2.50;0.90;;;;;;;5.97;100.00;98052.31;10300702;28;20045;-67
2022/02/22 18:50:10;;;;;;;2.85;0.93;;;;;;;6.01;100.00;98053.75;10299493;28;20054;-64
2022/02/22 18:55:18;;;;;;;2.47;0.70;;;;;;;5.97;100.00;98064.84;10336526;28;20058;-64
2022/02/22 19:00:33;;;;;;;1.70;0.77;;;;;;;5.98;100.00;98077.22;10326640;28;20054;-65
2022/02/22 19:05:57;;;;;;;2.08;0.85;;;;;;;5.99;100.00;98076.25;10328110;28;20042;-63
2022/02/22 19:11:01;;;;;;;3.10;0.93;;;;;;;6.04;100.00;98062.47;10329395;28;20053;-64
2022/02/22 19:16:07;;;;;;;2.05;0.88;;;;;;;6.07;100.00;98078.25;10315565;28;20468;-65
2022/02/22 19:21:10;;;;;;;3.55;0.88;;;;;;;6.03;100.00;98061.66;10318573;28;20425;-64
2022/02/22 19:26:14;;;;;;;2.53;0.90;;;;;;;6.09;100.00;98069.09;10311094;28;20046;-62
2022/02/22 19:31:19;;;;;;;2.88;1.05;;;;;;;6.11;100.00;98080.50;10315408;28;20042;-62
2022/02/22 19:36:22;;;;;;;1.67;0.82;;;;;;;6.12;100.00;98060.78;10326927;28;20085;-59
2022/02/22 19:41:25;;;;;;;2.97;1.20;;;;;;;6.16;100.00;98072.03;10319918;28;20054;-60
2022/02/22 19:46:30;;;;;;;3.00;1.05;;;;;;;6.20;100.00;98067.25;10302876;28;20042;-62
2022/02/22 19:51:34;;;;;;;3.05;1.05;;;;;;;6.23;100.00;98075.00;10300236;28;20055;-61
2022/02/22 19:56:37;;;;;;;3.03;1.10;;;;;;;6.26;100.00;98072.03;10300121;28;20053;-61
2022/02/22 20:01:41;;;;;;;2.63;1.00;;;;;;;6.33;100.00;98051.75;10318710;28;20058;-62
2022/02/22 20:06:45;;;;;;;2.53;1.20;;;;;;;6.40;100.00;98055.56;10306092;28;20049;-61
2022/02/22 20:11:48;;;;;;;3.08;1.30;;;;;;;6.42;100.00;98048.19;10311986;28;20049;-62
2022/02/22 20:16:52;;;;;;;4.20;1.40;;;;;;;6.42;100.00;98040.19;10305062;28;20193;-62
2022/02/22 20:22:00;;;;;;;3.17;1.27;;;;;;;6.43;100.00;98036.50;10295665;28;20120;-65
2022/02/22 20:27:03;;;;;;;3.75;1.40;;;;;;;6.47;100.00;98037.06;10290283;28;20050;-63
2022/02/22 20:32:08;;;;;;;3.47;1.30;;;;;;;6.48;100.00;98026.22;10308120;28;20050;-63
2022/02/22 20:37:11;;;;;;;3.83;1.40;;;;;;;6.54;100.00;98030.16;10303694;28;20574;-61
2022/02/22 20:42:15;;;;;;;4.15;1.20;;;;;;;6.59;100.00;98027.03;10308771;28;20546;-62
2022/02/22 20:47:23;;;;;;;3.95;1.40;;;;;;;6.62;100.00;98027.59;10312485;28;20057;-63
2022/02/22 20:52:26;;;;;;;3.55;1.38;;;;;;;6.62;100.00;98027.59;10309723;28;20074;-64
2022/02/22 20:57:30;;;;;;;4.00;1.20;;;;;;;6.65;100.00;98017.59;10305330;28;20082;-62
2022/02/22 21:02:35;;;;;;;3.65;1.38;;;;;;;6.73;100.00;98005.16;10314542;28;20130;-63
2022/02/22 21:07:38;;;;;;;3.95;1.30;;;;;;;6.72;100.00;98008.81;10314780;28;20543;-62
2022/02/22 21:12:43;;;;;;;4.05;1.40;;;;;;;6.72;100.00;98008.81;10316370;28;20062;-62
2022/02/22 21:17:48;;;;;;;4.15;1.55;;;;;;;6.76;100.00;98009.38;10311030;28;20122;-63
2022/02/22 21:22:51;;;;;;;3.95;1.27;;;;;;;6.75;100.00;98013.91;10314206;28;20057;-63
2022/02/22 21:27:54;;;;;;;4.57;1.25;;;;;;;6.77;100.00;98014.56;10298580;28;20093;-64
2022/02/22 21:32:59;;;;;;;4.20;1.17;;;;;;;6.76;100.00;98007.53;10317738;28;20039;-66
2022/02/22 21:38:02;;;;;;;4.38;1.50;;;;;;;6.75;100.00;98007.69;10298116;28;20054;-64
2022/02/22 21:43:09;;;;;;;5.97;1.55;;;;;;;6.76;100.00;98020.09;10291120;28;20058;-64
2022/02/22 21:48:13;;;;;;;3.95;1.30;;;;;;;6.80;100.00;98026.84;10292161;28;20054;-64
2022/02/22 21:53:17;;;;;;;3.28;1.20;;;;;;;6.77;100.00;98017.25;10293290;28;20583;-64
2022/02/22 21:58:20;;;;;;;3.33;1.10;;;;;;;6.77;100.00;98022.59;10291354;28;20054;-64
2022/02/22 22:03:25;;;;;;;2.38;1.00;;;;;;;6.85;100.00;98018.34;10294768;28;20074;-64
2022/02/22 22:08:28;;;;;;;3.28;1.00;;;;;;;6.90;100.00;98021.41;10296165;28;20464;-64
2022/02/22 22:13:31;;;;;;;2.58;0.93;;;;;;;6.99;100.00;98030.41;10303972;28;20070;-63
2022/02/22 22:18:36;;;;;;;1.73;0.60;;;;;;;7.04;100.00;98023.63;10305175;28;20146;-63
2022/02/22 22:23:40;;;;;;;1.42;0.55;;;;;;;7.07;100.00;98031.38;10298553;28;21366;-62
2022/02/22 22:28:43;;;;;;;0.50;0.40;;;;;;;7.16;100.00;98039.50;10303098;28;20648;-65
2022/02/22 22:33:48;;;;;;;1.65;0.63;;;;;;;7.14;100.00;98058.41;10295456;28;20042;-64
2022/02/22 22:38:51;;;;;;;0.70;0.43;;;;;;;7.04;100.00;98077.19;10303698;28;20045;-65
2022/02/22 22:43:54;;;;;;;1.00;0.47;;;;;;;6.99;100.00;98089.34;10307708;28;20547;-64
2022/02/22 22:49:06;;;;;;;0.60;0.40;;;;;;;6.90;100.00;98115.16;10309359;28;20062;-66
2022/02/22 22:54:10;;;;;;;2.13;0.40;;;;;;;6.90;100.00;98133.88;10315811;28;20054;-65
2022/02/22 22:59:13;;;;;;;1.30;0.50;;;;;;;6.96;100.00;98135.16;10320373;28;20054;-64
2022/02/22 23:04:20;;;;;;;1.25;0.50;;;;;;;6.89;100.00;98137.56;10322436;28;20492;-64
2022/02/22 23:14:46;;;;;;;1.85;0.50;;;;;;;7.01;100.00;98167.72;10320485;28;20045;-65
2022/02/22 23:19:51;;;;;;;1.08;0.50;;;;;;;7.15;100.00;98174.44;10314220;28;20105;-65
2022/02/22 23:24:55;;;;;;;2.80;0.80;;;;;;;7.14;100.00;98196.84;10305669;28;20050;-65
2022/02/22 23:29:59;;;;;;;1.75;0.60;;;;;;;7.21;100.00;98193.44;10306701;28;20055;-64
2022/02/22 23:35:08;;;;;;;1.30;0.68;;;;;;;7.23;100.00;98212.06;10297271;28;20130;-66